createdAt,value
2022-12-16T00:02:23.141Z,100302.56
2022-12-16T00:05:07.943Z,100359.25
2022-12-16T00:07:51.776Z,100351.84
2022-12-16T00:10:53.122Z,100300.13
2022-12-16T00:13:41.544Z,100364.31
2022-12-16T00:16:25.362Z,100359.50
2022-12-16T00:19:09.287Z,100361.00
2022-12-16T00:21:52.991Z,100347.81
2022-12-16T00:24:38.718Z,100325.03
2022-12-16T00:27:22.480Z,100348.53
2022-12-16T00:30:09.016Z,100352.53
2022-12-16T00:32:52.735Z,100336.94
2022-12-16T00:35:40.522Z,100334.50
2022-12-16T00:38:28.278Z,100337.66
2022-12-16T00:41:12.060Z,100327.66
2022-12-16T00:43:55.760Z,100323.34
2022-12-16T00:46:41.080Z,100321.50
2022-12-16T00:49:24.871Z,100302.94
2022-12-16T00:52:08.656Z,100311.41
2022-12-16T00:54:52.457Z,100308.75
2022-12-16T00:57:36.226Z,100283.66
2022-12-16T01:00:20.532Z,100282.78
2022-12-16T01:03:05.952Z,100292.41
2022-12-16T01:05:50.070Z,100277.91
2022-12-16T01:08:34.314Z,100286.78
2022-12-16T01:11:18.972Z,100290.13
2022-12-16T01:14:02.690Z,100278.31
2022-12-16T01:16:46.417Z,100289.72
2022-12-16T01:19:31.778Z,100279.63
2022-12-16T01:22:15.573Z,100278.44
2022-12-16T01:24:59.476Z,100274.41
2022-12-16T01:27:43.157Z,100289.59
2022-12-16T01:30:26.999Z,100289.31
2022-12-16T01:33:11.950Z,100260.47
2022-12-16T01:36:02.095Z,100288.97
2022-12-16T01:38:46.194Z,100282.72
2022-12-16T01:41:30.081Z,100306.22
2022-12-16T01:44:16.129Z,100302.25
2022-12-16T01:47:04.326Z,100291.41
2022-12-16T01:49:53.719Z,100279.81
2022-12-16T01:52:46.259Z,100283.13
2022-12-16T01:55:33.746Z,100294.75
2022-12-16T01:58:22.455Z,100290.88
2022-12-16T02:01:06.856Z,100283.66
2022-12-16T02:03:51.757Z,100241.97
2022-12-16T02:06:36.201Z,100286.66
2022-12-16T02:09:21.904Z,100283.97
2022-12-16T02:12:25.580Z,100283.44
2022-12-16T02:15:22.568Z,100236.03
2022-12-16T02:18:17.717Z,100286.06
2022-12-16T02:21:29.233Z,100264.09
2022-12-16T02:24:45.155Z,100275.41
2022-12-16T02:27:58.253Z,100279.16
2022-12-16T02:30:57.920Z,100271.63
2022-12-16T02:33:50.620Z,100275.75
2022-12-16T02:36:47.024Z,100265.66
2022-12-16T02:39:38.677Z,100270.94
2022-12-16T02:42:31.020Z,100259.50
2022-12-16T02:45:18.353Z,100279.69
2022-12-16T02:48:03.533Z,100292.50
2022-12-16T02:50:51.227Z,100290.00
2022-12-16T02:53:40.225Z,100284.22
2022-12-16T02:56:32.444Z,100274.31
2022-12-16T02:59:23.494Z,100277.03
2022-12-16T03:02:14.326Z,100295.50
2022-12-16T03:05:07.601Z,100280.59
2022-12-16T03:07:53.785Z,100286.28
2022-12-16T03:10:42.566Z,100293.94
2022-12-16T03:13:29.130Z,100288.47
2022-12-16T03:16:17.703Z,100277.50
2022-12-16T03:19:06.866Z,100258.25
2022-12-16T03:21:57.026Z,100267.09
2022-12-16T03:24:41.957Z,100253.31
2022-12-16T03:27:30.522Z,100272.59
2022-12-16T03:30:18.650Z,100272.09
2022-12-16T03:33:05.517Z,100258.19
2022-12-16T03:35:53.282Z,100241.94
2022-12-16T03:38:40.208Z,100252.13
2022-12-16T03:41:24.882Z,100247.00
2022-12-16T03:44:09.473Z,100231.44
2022-12-16T03:46:53.828Z,100247.16
2022-12-16T03:49:37.701Z,100238.00
2022-12-16T03:52:21.562Z,100234.16
2022-12-16T03:55:07.116Z,100231.56
2022-12-16T03:57:51.060Z,100224.81
2022-12-16T04:00:34.918Z,100232.09
2022-12-16T04:03:18.915Z,100219.66
2022-12-16T04:06:03.006Z,100215.53
2022-12-16T04:08:46.973Z,100216.09
2022-12-16T04:12:03.942Z,100249.69
2022-12-16T04:15:04.257Z,100244.88
2022-12-16T04:18:05.482Z,100256.28
2022-12-16T04:21:10.885Z,100258.03
2022-12-16T04:24:15.898Z,100242.75
2022-12-16T04:27:20.697Z,100253.84
2022-12-16T04:30:20.240Z,100258.91
2022-12-16T04:33:24.511Z,100250.47
2022-12-16T04:36:26.396Z,100264.47
2022-12-16T04:39:27.742Z,100257.19
2022-12-16T04:42:30.563Z,100283.81
2022-12-16T04:45:32.185Z,100256.47
2022-12-16T04:48:33.542Z,100254.22
2022-12-16T04:51:34.523Z,100229.16
2022-12-16T04:54:35.623Z,100262.19
2022-12-16T04:57:38.237Z,100265.97
2022-12-16T05:00:39.917Z,100270.81
2022-12-16T05:03:41.663Z,100264.25
2022-12-16T05:06:43.220Z,100271.16
2022-12-16T05:09:44.751Z,100173.19
2022-12-16T05:12:47.281Z,100262.97
2022-12-16T05:15:48.315Z,100258.50
2022-12-16T05:18:49.277Z,100247.72
2022-12-16T05:21:50.725Z,100258.50
2022-12-16T05:24:53.161Z,100246.84
2022-12-16T05:27:56.962Z,100225.84
2022-12-16T05:30:58.480Z,100266.53
2022-12-16T05:34:00.150Z,100272.97
2022-12-16T05:37:01.651Z,100272.22
2022-12-16T05:40:03.230Z,100278.19
2022-12-16T05:43:10.914Z,100281.47
2022-12-16T05:46:16.723Z,100273.72
2022-12-16T05:49:18.550Z,100268.88
2022-12-16T05:52:19.872Z,100274.31
2022-12-16T05:55:21.464Z,100240.94
2022-12-16T05:58:24.157Z,100270.34
2022-12-16T06:01:25.607Z,100236.09
2022-12-16T06:04:27.347Z,100249.56
2022-12-16T06:07:28.947Z,100277.59
2022-12-16T06:10:30.504Z,100280.25
2022-12-16T06:13:33.492Z,100266.00
2022-12-16T06:16:35.631Z,100277.06
2022-12-16T06:19:37.003Z,100276.16
2022-12-16T06:22:41.881Z,100231.28
2022-12-16T06:25:48.310Z,100218.06
2022-12-16T06:28:50.994Z,100281.06
2022-12-16T06:31:52.233Z,100267.66
2022-12-16T06:34:53.394Z,100266.56
2022-12-16T06:37:53.623Z,100240.50
2022-12-16T06:40:55.119Z,100259.69
2022-12-16T06:43:57.779Z,100269.31
2022-12-16T06:46:59.091Z,100259.69
2022-12-16T06:50:00.541Z,100279.91
2022-12-16T06:53:01.897Z,100271.91
2022-12-16T06:56:03.324Z,100279.13
2022-12-16T06:59:06.060Z,100287.06
2022-12-16T07:02:07.088Z,100290.16
2022-12-16T07:05:08.688Z,100291.16
2022-12-16T07:08:10.235Z,100289.25
2022-12-16T07:11:16.527Z,100271.97
2022-12-16T07:14:19.796Z,100272.50
2022-12-16T07:17:21.004Z,100260.44
2022-12-16T07:20:22.888Z,100269.09
2022-12-16T07:23:24.302Z,100259.91
2022-12-16T07:26:25.688Z,100252.56
2022-12-16T07:29:28.095Z,100253.84
2022-12-16T07:32:29.180Z,100261.53
2022-12-16T07:35:30.150Z,100255.09
2022-12-16T07:38:31.553Z,100256.16
2022-12-16T07:41:32.823Z,100254.81
2022-12-16T07:44:35.455Z,100265.53
2022-12-16T07:47:36.899Z,100253.09
2022-12-16T07:50:38.472Z,100252.81
2022-12-16T07:53:40.429Z,100249.94
2022-12-16T07:56:42.013Z,100239.78
2022-12-16T07:59:44.594Z,100247.28
2022-12-16T08:02:46.004Z,100253.94
2022-12-16T08:05:47.617Z,100236.34
2022-12-16T08:08:48.591Z,100243.19
2022-12-16T08:11:49.864Z,100242.44
2022-12-16T08:14:58.148Z,100239.97
2022-12-16T08:18:01.458Z,100247.72
2022-12-16T08:21:02.896Z,100249.06
2022-12-16T08:24:04.302Z,100239.44
2022-12-16T08:27:05.736Z,100235.50
2022-12-16T08:30:08.113Z,100229.81
2022-12-16T08:33:18.540Z,100222.19
2022-12-16T08:36:20.437Z,100214.84
2022-12-16T08:39:21.895Z,100220.66
2022-12-16T08:42:23.207Z,100213.81
2022-12-16T08:45:26.381Z,100215.34
2022-12-16T08:48:27.861Z,100193.19
2022-12-16T08:51:29.117Z,100210.75
2022-12-16T08:54:30.507Z,100208.06
2022-12-16T08:57:31.986Z,100203.66
2022-12-16T09:00:35.307Z,100198.81
2022-12-16T09:03:36.551Z,100191.84
2022-12-16T09:06:40.672Z,100195.63
2022-12-16T09:09:42.375Z,100186.75
2022-12-16T09:12:43.789Z,100184.81
2022-12-16T09:15:46.302Z,100184.72
2022-12-16T09:18:47.670Z,100178.13
2022-12-16T09:21:49.101Z,100177.44
2022-12-16T09:24:50.489Z,100166.97
2022-12-16T09:27:53.424Z,100161.69
2022-12-16T09:30:55.853Z,100141.19
2022-12-16T09:33:57.223Z,100149.34
2022-12-16T09:36:58.418Z,100154.06
2022-12-16T09:40:00.072Z,100145.13
2022-12-16T09:43:09.671Z,100110.13
2022-12-16T09:46:19.010Z,100123.47
2022-12-16T09:49:32.568Z,100115.44
2022-12-16T09:52:38.146Z,100075.66
2022-12-16T09:55:44.515Z,100120.47
2022-12-16T09:58:49.359Z,100088.00
2022-12-16T10:01:56.090Z,100105.91
2022-12-16T10:04:57.614Z,100093.31
2022-12-16T10:08:05.584Z,100109.34
2022-12-16T10:11:16.573Z,100118.91
2022-12-16T10:14:23.644Z,100113.84
2022-12-16T10:17:31.408Z,100103.59
2022-12-16T10:20:43.335Z,100008.06
2022-12-16T10:23:50.365Z,100109.63
2022-12-16T10:27:01.058Z,100096.22
2022-12-16T10:30:05.205Z,100056.19
2022-12-16T10:33:09.369Z,100082.63
2022-12-16T10:36:11.719Z,100074.38
2022-12-16T10:39:16.595Z,100055.72
2022-12-16T10:42:21.089Z,100080.81
2022-12-16T10:45:23.494Z,100051.00
2022-12-16T10:48:28.646Z,100069.06
2022-12-16T10:51:33.002Z,100061.28
2022-12-16T10:54:46.577Z,99903.75
2022-12-16T10:57:59.567Z,100049.47
2022-12-16T11:01:04.055Z,100045.06
2022-12-16T11:04:06.818Z,100061.47
2022-12-16T11:07:08.161Z,100050.13
2022-12-16T11:10:10.530Z,100032.41
2022-12-16T11:13:26.006Z,100045.56
2022-12-16T11:16:31.049Z,100047.78
2022-12-16T11:19:40.987Z,100041.41
2022-12-16T11:22:42.841Z,100057.06
2022-12-16T11:25:44.211Z,100031.09
2022-12-16T11:28:45.662Z,100028.16
2022-12-16T11:31:47.239Z,100047.94
2022-12-16T11:34:50.931Z,100008.59
2022-12-16T11:37:53.793Z,100015.84
2022-12-16T11:40:56.744Z,99977.94
2022-12-16T11:44:01.331Z,100020.53
2022-12-16T11:47:02.937Z,100013.50
2022-12-16T11:50:05.307Z,100016.66
2022-12-16T11:53:14.588Z,100005.31
2022-12-16T11:56:16.611Z,100003.91
2022-12-16T11:59:22.418Z,99980.66
2022-12-16T12:02:31.867Z,99990.25
2022-12-16T12:05:34.960Z,100011.25
2022-12-16T12:08:46.283Z,99995.72
2022-12-16T12:11:50.393Z,100014.94
2022-12-16T12:14:58.071Z,100006.09
2022-12-16T12:18:06.648Z,99965.22
2022-12-16T12:21:18.767Z,100004.63
2022-12-16T12:24:28.059Z,100003.63
2022-12-16T12:27:40.407Z,99995.34
2022-12-16T12:30:42.742Z,100011.16
2022-12-16T12:33:56.166Z,100007.19
2022-12-16T12:37:07.305Z,100010.72
2022-12-16T12:40:16.383Z,100013.59
2022-12-16T12:43:19.761Z,100013.97
2022-12-16T12:46:28.852Z,100020.69
2022-12-16T12:49:38.443Z,99986.59
2022-12-16T12:52:55.648Z,100013.13
2022-12-16T12:56:02.010Z,99985.78
2022-12-16T12:59:05.246Z,99990.13
2022-12-16T13:02:09.350Z,100007.06
2022-12-16T13:05:11.325Z,99998.16
2022-12-16T13:08:13.688Z,100023.53
2022-12-16T13:11:34.984Z,100033.06
2022-12-16T13:15:20.791Z,100031.56
2022-12-16T13:18:39.351Z,100033.53
2022-12-16T13:22:03.242Z,100037.88
2022-12-16T13:25:09.326Z,100005.41
2022-12-16T13:28:15.217Z,100031.38
2022-12-16T13:31:25.897Z,100020.88
2022-12-16T13:34:46.054Z,100026.09
2022-12-16T13:37:47.530Z,100029.16
2022-12-16T13:41:07.631Z,100033.78
2022-12-16T13:44:10.976Z,100029.78
2022-12-16T13:47:13.605Z,100043.09
2022-12-16T13:50:26.537Z,100031.66
2022-12-16T13:53:30.267Z,100033.22
2022-12-16T13:56:34.286Z,100047.59
2022-12-16T13:59:39.443Z,100053.97
2022-12-16T14:02:49.824Z,100053.22
2022-12-16T14:05:56.000Z,100062.94
2022-12-16T14:09:01.102Z,100037.88
2022-12-16T14:12:08.650Z,100057.91
2022-12-16T14:15:16.236Z,100066.50
2022-12-16T14:18:24.797Z,100043.84
2022-12-16T14:21:39.625Z,100033.78
2022-12-16T14:24:44.484Z,100056.09
2022-12-16T14:28:05.979Z,100065.91
2022-12-16T14:31:07.365Z,100063.97
2022-12-16T14:34:11.969Z,100037.75
2022-12-16T14:37:13.404Z,100063.31
2022-12-16T14:40:14.713Z,100065.09
2022-12-16T14:43:17.111Z,100041.72
2022-12-16T14:46:19.014Z,100088.91
2022-12-16T14:49:25.933Z,100085.78
2022-12-16T14:52:46.349Z,100088.66
2022-12-16T14:55:50.173Z,100086.72
2022-12-16T14:58:52.562Z,100075.03
2022-12-16T15:01:54.161Z,100080.16
2022-12-16T15:05:10.237Z,100079.13
2022-12-16T15:08:11.607Z,100080.59
2022-12-16T15:11:13.264Z,100091.72
2022-12-16T15:14:19.041Z,100091.91
2022-12-16T15:17:20.657Z,100083.66
2022-12-16T15:20:22.820Z,100072.44
2022-12-16T15:23:34.959Z,100085.63
2022-12-16T15:26:37.733Z,100079.81
2022-12-16T15:29:53.184Z,100080.03
2022-12-16T15:32:54.719Z,100086.75
2022-12-16T15:35:57.803Z,100082.94
2022-12-16T15:38:59.687Z,100087.84
2022-12-16T15:42:20.513Z,100086.53
2022-12-16T15:45:24.038Z,100089.84
2022-12-16T15:48:31.592Z,100085.91
2022-12-16T15:51:47.938Z,100072.09
2022-12-16T15:54:49.471Z,100063.56
2022-12-16T15:57:52.499Z,100085.41
2022-12-16T16:00:54.892Z,100080.63
2022-12-16T16:03:57.217Z,100085.19
2022-12-16T16:07:04.746Z,100084.97
2022-12-16T16:10:06.367Z,100091.88
2022-12-16T16:13:03.973Z,100080.19
2022-12-16T16:16:06.693Z,100110.56
2022-12-16T16:19:08.132Z,100106.09
2022-12-16T16:22:09.398Z,100098.00
2022-12-16T16:25:10.650Z,100072.88
2022-12-16T16:28:11.729Z,100105.94
2022-12-16T16:31:14.431Z,100108.16
2022-12-16T16:34:16.055Z,100103.72
2022-12-16T16:37:17.490Z,100107.44
2022-12-16T16:40:19.478Z,100109.75
2022-12-16T16:43:20.258Z,100105.97
2022-12-16T16:46:33.092Z,100104.28
2022-12-16T16:49:40.683Z,100104.28
2022-12-16T16:52:44.081Z,100097.78
2022-12-16T16:55:45.180Z,100102.78
2022-12-16T16:58:50.309Z,100094.38
2022-12-16T17:01:52.937Z,100095.03
2022-12-16T17:04:53.936Z,100109.03
2022-12-16T17:07:55.535Z,100098.13
2022-12-16T17:10:57.047Z,100111.13
2022-12-16T17:13:57.982Z,100116.03
2022-12-16T17:17:00.483Z,100125.13
2022-12-16T17:20:01.618Z,100119.44
2022-12-16T17:23:05.903Z,100113.56
2022-12-16T17:26:07.372Z,100111.38
2022-12-16T17:29:10.463Z,100099.47
2022-12-16T17:32:12.917Z,100106.19
2022-12-16T17:35:14.448Z,100090.94
2022-12-16T17:38:15.553Z,100102.72
2022-12-16T17:41:16.958Z,100092.75
2022-12-16T17:44:29.949Z,100101.81
2022-12-16T17:47:32.845Z,100107.09
2022-12-16T17:50:34.260Z,100115.31
2022-12-16T17:53:36.133Z,100111.03
2022-12-16T17:56:37.797Z,100112.22
2022-12-16T17:59:39.232Z,100113.34
2022-12-16T18:02:41.689Z,100117.38
2022-12-16T18:05:44.878Z,100123.56
2022-12-16T18:08:46.443Z,100097.53
2022-12-16T18:11:47.263Z,100108.56
2022-12-16T18:14:48.766Z,100098.69
2022-12-16T18:17:51.538Z,100110.78
2022-12-16T18:20:52.896Z,100107.56
2022-12-16T18:23:54.435Z,100108.16
2022-12-16T18:26:55.755Z,100107.78
2022-12-16T18:29:57.031Z,100105.34
2022-12-16T18:32:59.573Z,100107.78
2022-12-16T18:36:01.067Z,100115.34
2022-12-16T18:39:02.480Z,100079.00
2022-12-16T18:42:05.284Z,100101.53
2022-12-16T18:45:07.764Z,100112.88
2022-12-16T18:48:10.453Z,100085.75
2022-12-16T18:51:12.287Z,100097.16
2022-12-16T18:54:13.126Z,100099.81
2022-12-16T18:57:14.480Z,100080.53
2022-12-16T19:00:15.376Z,100096.63
2022-12-16T19:03:18.009Z,100060.06
2022-12-16T19:06:19.369Z,100082.22
2022-12-16T19:09:20.679Z,100078.88
2022-12-16T19:12:21.469Z,100072.53
2022-12-16T19:15:22.749Z,100062.50
2022-12-16T19:18:25.252Z,100074.47
2022-12-16T19:21:27.582Z,100075.91
2022-12-16T19:24:28.895Z,100082.31
2022-12-16T19:27:29.741Z,100096.25
2022-12-16T19:30:30.996Z,100062.25
2022-12-16T19:33:33.545Z,100099.50
2022-12-16T19:36:34.574Z,100115.91
2022-12-16T19:39:36.156Z,100100.59
2022-12-16T19:42:37.553Z,100107.41
2022-12-16T19:45:38.978Z,100104.25
2022-12-16T19:48:41.461Z,100110.91
2022-12-16T19:51:43.186Z,100068.22
2022-12-16T19:54:58.682Z,99931.47
2022-12-16T19:57:59.763Z,100107.41
2022-12-16T20:01:00.827Z,100105.69
2022-12-16T20:04:03.284Z,100110.84
2022-12-16T20:07:04.764Z,100111.09
2022-12-16T20:10:05.593Z,100102.13
2022-12-16T20:13:06.384Z,100091.72
2022-12-16T20:16:07.629Z,100065.88
2022-12-16T20:19:10.096Z,100098.69
2022-12-16T20:22:14.535Z,100093.03
2022-12-16T20:25:19.977Z,100099.94
2022-12-16T20:31:42.730Z,100113.06
2022-12-16T20:34:45.010Z,100111.56
2022-12-16T20:37:56.184Z,100078.63
2022-12-16T20:40:56.404Z,100108.25
2022-12-16T20:43:57.763Z,100122.19
2022-12-16T20:46:59.223Z,100100.75
2022-12-16T20:50:01.824Z,100117.22
2022-12-16T20:53:04.873Z,100120.84
2022-12-16T20:56:06.232Z,100088.38
2022-12-16T20:59:07.800Z,100120.72
2022-12-16T21:02:30.345Z,100121.13
2022-12-16T21:05:32.707Z,100124.72
2022-12-16T21:08:33.657Z,100123.84
2022-12-16T21:11:35.336Z,100130.81
2022-12-16T21:14:36.616Z,100126.72
2022-12-16T21:14:42.429Z,100111.56
2022-12-16T21:17:38.040Z,100125.66
2022-12-16T21:20:40.573Z,100124.25
2022-12-16T21:23:42.739Z,100116.13
2022-12-16T21:26:44.220Z,100085.25
2022-12-16T21:29:45.136Z,99929.53
2022-12-16T21:32:46.548Z,100101.66
2022-12-16T21:35:49.030Z,100103.63
2022-12-16T21:38:50.311Z,100118.38
2022-12-16T21:41:51.641Z,100104.00
2022-12-16T21:44:53.144Z,100104.28
2022-12-16T21:47:57.937Z,100104.19
2022-12-16T21:51:00.522Z,100095.72
2022-12-16T21:54:08.270Z,100102.84
2022-12-16T21:57:11.554Z,100088.66
2022-12-16T22:00:12.954Z,100077.31
2022-12-16T22:03:14.488Z,100092.97
2022-12-16T22:06:18.251Z,100097.56
2022-12-16T22:09:19.209Z,100104.56
2022-12-16T22:12:20.545Z,100105.97
2022-12-16T22:15:21.966Z,100105.31
2022-12-16T22:18:23.413Z,100078.28
2022-12-16T22:21:26.054Z,100095.69
2022-12-16T22:24:26.657Z,100103.44
2022-12-16T22:27:27.937Z,100095.31
2022-12-16T22:30:30.100Z,100099.91
2022-12-16T22:33:31.533Z,100093.16
2022-12-16T22:36:34.219Z,100103.59
2022-12-16T22:39:38.799Z,100078.81
2022-12-16T22:42:42.940Z,100084.53
2022-12-16T22:45:43.964Z,100085.94
2022-12-16T22:48:45.547Z,100062.66
2022-12-16T22:51:48.178Z,100050.25
2022-12-16T22:54:49.317Z,100078.91
2022-12-16T22:57:53.391Z,100061.06
2022-12-16T23:00:56.404Z,100070.97
2022-12-16T23:03:58.028Z,100042.59
2022-12-16T23:07:00.421Z,100076.00
2022-12-16T23:10:01.771Z,100074.94
2022-12-16T23:13:04.194Z,100073.91
2022-12-16T23:16:05.901Z,100064.34
2022-12-16T23:19:06.770Z,100038.16
2022-12-16T23:22:09.487Z,100042.69
2022-12-16T23:25:11.293Z,100065.00
2022-12-16T23:28:12.562Z,100066.72
2022-12-16T23:31:14.508Z,100070.78
2022-12-16T23:34:15.840Z,100073.53
2022-12-16T23:37:18.336Z,100042.41
2022-12-16T23:40:19.848Z,100056.47
2022-12-16T23:43:21.043Z,100066.28
2022-12-16T23:46:22.514Z,100079.75
2022-12-16T23:49:24.024Z,100078.41
2022-12-16T23:52:26.747Z,100089.38
2022-12-16T23:55:28.196Z,100090.38
2022-12-16T23:58:29.696Z,100077.78
